sensor_id;sensor_type;location;lat;lon;timestamp;P1;durP1;ratioP1;P2;durP2;ratioP2
7444;SDS011;3764;48.126;11.594;2023-07-09T00:01:49;9.77;;;6.90;;
7444;SDS011;3764;48.126;11.594;2023-07-09T00:04:17;12.80;;;7.50;;
7444;SDS011;3764;48.126;11.594;2023-07-09T00:06:45;11.57;;;7.53;;
7444;SDS011;3764;48.126;11.594;2023-07-09T00:09:13;10.33;;;7.80;;
7444;SDS011;3764;48.126;11.594;2023-07-09T00:11:41;8.60;;;7.20;;
7444;SDS011;3764;48.126;11.594;2023-07-09T00:14:11;9.83;;;8.27;;
7444;SDS011;3764;48.126;11.594;2023-07-09T00:16:39;12.13;;;8.17;;
7444;SDS011;3764;48.126;11.594;2023-07-09T00:19:09;8.87;;;7.13;;
7444;SDS011;3764;48.126;11.594;2023-07-09T00:21:41;8.47;;;7.40;;
7444;SDS011;3764;48.126;11.594;2023-07-09T00:24:10;8.77;;;7.30;;
7444;SDS011;3764;48.126;11.594;2023-07-09T00:26:37;11.30;;;7.70;;
7444;SDS011;3764;48.126;11.594;2023-07-09T00:29:07;11.63;;;7.60;;
7444;SDS011;3764;48.126;11.594;2023-07-09T00:31:37;9.80;;;7.30;;
7444;SDS011;3764;48.126;11.594;2023-07-09T00:34:06;9.80;;;6.97;;
7444;SDS011;3764;48.126;11.594;2023-07-09T00:36:37;9.73;;;7.60;;
7444;SDS011;3764;48.126;11.594;2023-07-09T00:39:04;20.23;;;8.20;;
7444;SDS011;3764;48.126;11.594;2023-07-09T00:41:33;9.33;;;7.10;;
7444;SDS011;3764;48.126;11.594;2023-07-09T00:44:17;11.07;;;7.20;;
7444;SDS011;3764;48.126;11.594;2023-07-09T00:50:03;7.90;;;7.10;;
7444;SDS011;3764;48.126;11.594;2023-07-09T00:52:37;9.43;;;7.30;;
7444;SDS011;3764;48.126;11.594;2023-07-09T00:55:11;9.70;;;7.40;;
7444;SDS011;3764;48.126;11.594;2023-07-09T00:57:42;9.03;;;6.77;;
7444;SDS011;3764;48.126;11.594;2023-07-09T01:00:21;8.40;;;6.77;;
7444;SDS011;3764;48.126;11.594;2023-07-09T01:02:54;7.70;;;6.77;;
7444;SDS011;3764;48.126;11.594;2023-07-09T01:05:24;12.20;;;7.10;;
7444;SDS011;3764;48.126;11.594;2023-07-09T01:07:51;9.00;;;6.17;;
7444;SDS011;3764;48.126;11.594;2023-07-09T01:10:18;12.37;;;8.00;;
7444;SDS011;3764;48.126;11.594;2023-07-09T01:12:46;8.10;;;6.30;;
7444;SDS011;3764;48.126;11.594;2023-07-09T01:15:15;14.00;;;7.17;;
7444;SDS011;3764;48.126;11.594;2023-07-09T01:17:42;8.50;;;6.90;;
7444;SDS011;3764;48.126;11.594;2023-07-09T01:20:16;10.70;;;7.33;;
7444;SDS011;3764;48.126;11.594;2023-07-09T01:22:49;11.13;;;7.63;;
7444;SDS011;3764;48.126;11.594;2023-07-09T01:25:20;13.97;;;6.60;;
7444;SDS011;3764;48.126;11.594;2023-07-09T01:27:47;10.67;;;7.83;;
7444;SDS011;3764;48.126;11.594;2023-07-09T01:30:17;9.40;;;7.20;;
7444;SDS011;3764;48.126;11.594;2023-07-09T01:32:47;8.00;;;6.00;;
7444;SDS011;3764;48.126;11.594;2023-07-09T01:35:16;8.87;;;6.80;;
7444;SDS011;3764;48.126;11.594;2023-07-09T01:37:45;12.57;;;7.47;;
7444;SDS011;3764;48.126;11.594;2023-07-09T01:40:15;10.20;;;6.97;;
7444;SDS011;3764;48.126;11.594;2023-07-09T01:42:44;8.87;;;7.47;;
7444;SDS011;3764;48.126;11.594;2023-07-09T01:45:11;8.83;;;7.00;;
7444;SDS011;3764;48.126;11.594;2023-07-09T01:47:39;11.30;;;7.10;;
7444;SDS011;3764;48.126;11.594;2023-07-09T01:50:06;11.30;;;6.87;;
7444;SDS011;3764;48.126;11.594;2023-07-09T01:52:35;9.57;;;6.83;;
7444;SDS011;3764;48.126;11.594;2023-07-09T01:55:04;9.73;;;7.20;;
7444;SDS011;3764;48.126;11.594;2023-07-09T01:57:34;9.50;;;7.80;;
7444;SDS011;3764;48.126;11.594;2023-07-09T02:00:01;10.33;;;7.37;;
7444;SDS011;3764;48.126;11.594;2023-07-09T02:02:34;8.87;;;7.13;;
7444;SDS011;3764;48.126;11.594;2023-07-09T02:05:01;9.37;;;6.30;;
7444;SDS011;3764;48.126;11.594;2023-07-09T02:07:29;9.63;;;6.47;;
7444;SDS011;3764;48.126;11.594;2023-07-09T02:09:56;9.10;;;6.60;;
7444;SDS011;3764;48.126;11.594;2023-07-09T02:12:24;8.73;;;6.80;;
7444;SDS011;3764;48.126;11.594;2023-07-09T02:14:53;7.60;;;6.33;;
7444;SDS011;3764;48.126;11.594;2023-07-09T02:17:20;11.10;;;6.47;;
7444;SDS011;3764;48.126;11.594;2023-07-09T02:19:47;8.80;;;6.80;;
7444;SDS011;3764;48.126;11.594;2023-07-09T02:22:14;7.87;;;7.07;;
7444;SDS011;3764;48.126;11.594;2023-07-09T02:24:41;11.73;;;6.93;;
7444;SDS011;3764;48.126;11.594;2023-07-09T02:27:09;10.90;;;7.03;;
7444;SDS011;3764;48.126;11.594;2023-07-09T02:29:39;7.87;;;6.07;;
7444;SDS011;3764;48.126;11.594;2023-07-09T02:32:08;9.00;;;6.60;;
7444;SDS011;3764;48.126;11.594;2023-07-09T02:34:39;9.70;;;6.30;;
7444;SDS011;3764;48.126;11.594;2023-07-09T02:37:06;8.33;;;6.27;;
7444;SDS011;3764;48.126;11.594;2023-07-09T02:39:33;8.70;;;6.40;;
7444;SDS011;3764;48.126;11.594;2023-07-09T02:42:00;11.80;;;6.53;;
7444;SDS011;3764;48.126;11.594;2023-07-09T02:44:27;8.33;;;6.70;;
7444;SDS011;3764;48.126;11.594;2023-07-09T02:46:54;12.00;;;7.40;;
7444;SDS011;3764;48.126;11.594;2023-07-09T02:49:22;7.10;;;5.63;;
7444;SDS011;3764;48.126;11.594;2023-07-09T02:51:49;8.70;;;6.90;;
7444;SDS011;3764;48.126;11.594;2023-07-09T02:54:16;8.77;;;6.10;;
7444;SDS011;3764;48.126;11.594;2023-07-09T02:56:43;9.20;;;6.53;;
7444;SDS011;3764;48.126;11.594;2023-07-09T02:59:11;13.40;;;6.97;;
7444;SDS011;3764;48.126;11.594;2023-07-09T03:01:38;9.33;;;6.50;;
7444;SDS011;3764;48.126;11.594;2023-07-09T03:04:06;8.93;;;5.97;;
7444;SDS011;3764;48.126;11.594;2023-07-09T03:06:35;8.10;;;6.20;;
7444;SDS011;3764;48.126;11.594;2023-07-09T03:09:03;8.20;;;6.67;;
7444;SDS011;3764;48.126;11.594;2023-07-09T03:11:31;10.63;;;6.73;;
7444;SDS011;3764;48.126;11.594;2023-07-09T03:14:00;9.67;;;6.70;;
7444;SDS011;3764;48.126;11.594;2023-07-09T03:16:27;8.60;;;6.80;;
7444;SDS011;3764;48.126;11.594;2023-07-09T03:18:56;8.17;;;7.03;;
7444;SDS011;3764;48.126;11.594;2023-07-09T03:21:24;7.83;;;6.50;;
7444;SDS011;3764;48.126;11.594;2023-07-09T03:23:54;13.03;;;6.90;;
7444;SDS011;3764;48.126;11.594;2023-07-09T03:26:21;7.07;;;6.37;;
7444;SDS011;3764;48.126;11.594;2023-07-09T03:28:50;9.10;;;7.30;;
7444;SDS011;3764;48.126;11.594;2023-07-09T03:31:18;8.20;;;6.07;;
7444;SDS011;3764;48.126;11.594;2023-07-09T03:33:46;13.10;;;7.70;;
7444;SDS011;3764;48.126;11.594;2023-07-09T03:36:13;11.00;;;7.00;;
7444;SDS011;3764;48.126;11.594;2023-07-09T03:38:40;9.77;;;6.40;;
7444;SDS011;3764;48.126;11.594;2023-07-09T03:41:09;8.67;;;7.00;;
7444;SDS011;3764;48.126;11.594;2023-07-09T03:43:36;9.00;;;6.60;;
7444;SDS011;3764;48.126;11.594;2023-07-09T03:46:03;9.10;;;7.23;;
7444;SDS011;3764;48.126;11.594;2023-07-09T03:48:30;6.67;;;6.00;;
7444;SDS011;3764;48.126;11.594;2023-07-09T03:50:57;8.63;;;7.47;;
7444;SDS011;3764;48.126;11.594;2023-07-09T03:53:24;7.73;;;6.90;;
7444;SDS011;3764;48.126;11.594;2023-07-09T03:55:52;8.50;;;6.10;;
7444;SDS011;3764;48.126;11.594;2023-07-09T03:58:21;7.83;;;6.37;;
7444;SDS011;3764;48.126;11.594;2023-07-09T04:00:49;7.77;;;6.60;;
7444;SDS011;3764;48.126;11.594;2023-07-09T04:03:16;8.40;;;6.30;;
7444;SDS011;3764;48.126;11.594;2023-07-09T04:05:43;7.10;;;6.20;;
7444;SDS011;3764;48.126;11.594;2023-07-09T04:08:10;8.17;;;7.17;;
7444;SDS011;3764;48.126;11.594;2023-07-09T04:10:37;14.13;;;7.23;;
7444;SDS011;3764;48.126;11.594;2023-07-09T04:13:04;9.17;;;6.80;;
7444;SDS011;3764;48.126;11.594;2023-07-09T04:15:33;8.57;;;5.80;;
7444;SDS011;3764;48.126;11.594;2023-07-09T04:18:00;9.93;;;6.30;;
7444;SDS011;3764;48.126;11.594;2023-07-09T04:20:27;8.27;;;7.00;;
7444;SDS011;3764;48.126;11.594;2023-07-09T04:22:54;7.27;;;5.80;;
7444;SDS011;3764;48.126;11.594;2023-07-09T04:25:22;11.03;;;6.30;;
7444;SDS011;3764;48.126;11.594;2023-07-09T04:27:49;6.10;;;5.50;;
7444;SDS011;3764;48.126;11.594;2023-07-09T04:30:16;11.30;;;6.47;;
7444;SDS011;3764;48.126;11.594;2023-07-09T04:32:45;9.13;;;6.00;;
7444;SDS011;3764;48.126;11.594;2023-07-09T04:35:13;10.80;;;6.70;;
7444;SDS011;3764;48.126;11.594;2023-07-09T04:37:40;8.00;;;5.77;;
7444;SDS011;3764;48.126;11.594;2023-07-09T04:40:08;8.20;;;6.60;;
7444;SDS011;3764;48.126;11.594;2023-07-09T04:42:37;9.57;;;6.40;;
7444;SDS011;3764;48.126;11.594;2023-07-09T04:45:05;8.60;;;6.77;;
7444;SDS011;3764;48.126;11.594;2023-07-09T04:47:35;11.60;;;6.70;;
7444;SDS011;3764;48.126;11.594;2023-07-09T04:50:04;10.50;;;6.80;;
7444;SDS011;3764;48.126;11.594;2023-07-09T04:52:32;8.07;;;6.00;;
7444;SDS011;3764;48.126;11.594;2023-07-09T04:55:00;6.60;;;5.90;;
7444;SDS011;3764;48.126;11.594;2023-07-09T04:57:27;8.43;;;6.20;;
7444;SDS011;3764;48.126;11.594;2023-07-09T04:59:54;9.00;;;6.30;;
7444;SDS011;3764;48.126;11.594;2023-07-09T05:02:22;8.65;;;5.82;;
7444;SDS011;3764;48.126;11.594;2023-07-09T05:04:49;9.00;;;6.60;;
7444;SDS011;3764;48.126;11.594;2023-07-09T05:07:17;10.70;;;5.87;;
7444;SDS011;3764;48.126;11.594;2023-07-09T05:09:45;8.40;;;6.30;;
7444;SDS011;3764;48.126;11.594;2023-07-09T05:12:12;8.57;;;6.00;;
7444;SDS011;3764;48.126;11.594;2023-07-09T05:14:40;7.50;;;6.50;;
7444;SDS011;3764;48.126;11.594;2023-07-09T05:17:07;7.83;;;6.27;;
7444;SDS011;3764;48.126;11.594;2023-07-09T05:19:35;8.43;;;6.13;;
7444;SDS011;3764;48.126;11.594;2023-07-09T05:22:02;7.47;;;6.70;;
7444;SDS011;3764;48.126;11.594;2023-07-09T05:24:31;7.00;;;6.07;;
7444;SDS011;3764;48.126;11.594;2023-07-09T05:26:58;8.03;;;5.57;;
7444;SDS011;3764;48.126;11.594;2023-07-09T05:29:25;9.07;;;6.83;;
7444;SDS011;3764;48.126;11.594;2023-07-09T05:31:53;7.30;;;5.67;;
7444;SDS011;3764;48.126;11.594;2023-07-09T05:34:20;5.73;;;5.23;;
7444;SDS011;3764;48.126;11.594;2023-07-09T05:36:47;9.20;;;6.40;;
7444;SDS011;3764;48.126;11.594;2023-07-09T05:39:14;7.80;;;5.70;;
7444;SDS011;3764;48.126;11.594;2023-07-09T05:41:43;7.50;;;6.53;;
7444;SDS011;3764;48.126;11.594;2023-07-09T05:44:10;7.67;;;5.60;;
7444;SDS011;3764;48.126;11.594;2023-07-09T05:46:37;6.90;;;5.90;;
7444;SDS011;3764;48.126;11.594;2023-07-09T05:49:05;7.87;;;6.07;;
7444;SDS011;3764;48.126;11.594;2023-07-09T05:51:32;8.83;;;6.27;;
7444;SDS011;3764;48.126;11.594;2023-07-09T05:54:00;7.27;;;6.50;;
7444;SDS011;3764;48.126;11.594;2023-07-09T05:56:27;7.40;;;6.03;;
7444;SDS011;3764;48.126;11.594;2023-07-09T05:58:56;9.00;;;6.40;;
7444;SDS011;3764;48.126;11.594;2023-07-09T06:01:23;10.20;;;6.03;;
7444;SDS011;3764;48.126;11.594;2023-07-09T06:03:51;6.67;;;5.50;;
7444;SDS011;3764;48.126;11.594;2023-07-09T06:06:19;11.17;;;5.80;;
7444;SDS011;3764;48.126;11.594;2023-07-09T06:08:47;8.30;;;6.40;;
7444;SDS011;3764;48.126;11.594;2023-07-09T06:11:15;9.57;;;6.07;;
7444;SDS011;3764;48.126;11.594;2023-07-09T06:13:43;8.03;;;5.20;;
7444;SDS011;3764;48.126;11.594;2023-07-09T06:16:13;5.43;;;4.73;;
7444;SDS011;3764;48.126;11.594;2023-07-09T06:18:41;8.07;;;5.50;;
7444;SDS011;3764;48.126;11.594;2023-07-09T06:21:08;5.60;;;4.07;;
7444;SDS011;3764;48.126;11.594;2023-07-09T06:23:36;6.17;;;5.17;;
7444;SDS011;3764;48.126;11.594;2023-07-09T06:26:03;6.27;;;5.10;;
7444;SDS011;3764;48.126;11.594;2023-07-09T06:28:31;10.10;;;6.47;;
7444;SDS011;3764;48.126;11.594;2023-07-09T06:30:58;6.20;;;5.30;;
7444;SDS011;3764;48.126;11.594;2023-07-09T06:33:27;5.37;;;4.60;;
7444;SDS011;3764;48.126;11.594;2023-07-09T06:35:55;6.00;;;5.20;;
7444;SDS011;3764;48.126;11.594;2023-07-09T06:38:24;8.97;;;6.00;;
7444;SDS011;3764;48.126;11.594;2023-07-09T06:40:51;6.00;;;5.40;;
7444;SDS011;3764;48.126;11.594;2023-07-09T06:43:19;6.53;;;5.57;;
7444;SDS011;3764;48.126;11.594;2023-07-09T06:45:53;6.80;;;5.10;;
7444;SDS011;3764;48.126;11.594;2023-07-09T06:48:21;5.97;;;5.10;;
7444;SDS011;3764;48.126;11.594;2023-07-09T06:50:51;5.40;;;4.50;;
7444;SDS011;3764;48.126;11.594;2023-07-09T06:53:19;7.90;;;5.50;;
7444;SDS011;3764;48.126;11.594;2023-07-09T06:55:46;9.23;;;6.20;;
7444;SDS011;3764;48.126;11.594;2023-07-09T06:58:14;8.00;;;5.23;;
7444;SDS011;3764;48.126;11.594;2023-07-09T07:00:42;7.30;;;5.50;;
7444;SDS011;3764;48.126;11.594;2023-07-09T07:03:09;6.27;;;5.00;;
7444;SDS011;3764;48.126;11.594;2023-07-09T07:05:36;6.23;;;5.30;;
7444;SDS011;3764;48.126;11.594;2023-07-09T07:08:07;5.70;;;4.80;;
7444;SDS011;3764;48.126;11.594;2023-07-09T07:10:34;7.63;;;5.13;;
7444;SDS011;3764;48.126;11.594;2023-07-09T07:13:01;5.03;;;4.40;;
7444;SDS011;3764;48.126;11.594;2023-07-09T07:15:28;5.53;;;4.80;;
7444;SDS011;3764;48.126;11.594;2023-07-09T07:17:55;5.97;;;4.83;;
7444;SDS011;3764;48.126;11.594;2023-07-09T07:20:23;5.00;;;4.27;;
7444;SDS011;3764;48.126;11.594;2023-07-09T07:22:50;10.83;;;5.60;;
7444;SDS011;3764;48.126;11.594;2023-07-09T07:25:19;4.93;;;4.13;;
7444;SDS011;3764;48.126;11.594;2023-07-09T07:27:46;5.20;;;4.20;;
7444;SDS011;3764;48.126;11.594;2023-07-09T07:30:13;6.03;;;4.97;;
7444;SDS011;3764;48.126;11.594;2023-07-09T07:32:43;5.37;;;4.43;;
7444;SDS011;3764;48.126;11.594;2023-07-09T07:35:11;7.20;;;5.03;;
7444;SDS011;3764;48.126;11.594;2023-07-09T07:37:39;6.00;;;5.23;;
7444;SDS011;3764;48.126;11.594;2023-07-09T07:40:07;5.70;;;4.90;;
7444;SDS011;3764;48.126;11.594;2023-07-09T07:42:36;6.63;;;4.90;;
7444;SDS011;3764;48.126;11.594;2023-07-09T07:45:03;6.40;;;4.70;;
7444;SDS011;3764;48.126;11.594;2023-07-09T07:47:32;6.70;;;5.33;;
7444;SDS011;3764;48.126;11.594;2023-07-09T07:49:59;7.03;;;6.33;;
7444;SDS011;3764;48.126;11.594;2023-07-09T07:52:27;6.80;;;5.47;;
7444;SDS011;3764;48.126;11.594;2023-07-09T07:54:54;9.57;;;5.77;;
7444;SDS011;3764;48.126;11.594;2023-07-09T07:57:21;7.70;;;5.07;;
7444;SDS011;3764;48.126;11.594;2023-07-09T07:59:52;7.40;;;4.90;;
7444;SDS011;3764;48.126;11.594;2023-07-09T08:02:19;8.03;;;5.20;;
7444;SDS011;3764;48.126;11.594;2023-07-09T08:04:47;8.33;;;5.10;;
7444;SDS011;3764;48.126;11.594;2023-07-09T08:07:16;5.93;;;5.37;;
7444;SDS011;3764;48.126;11.594;2023-07-09T08:09:44;5.70;;;4.90;;
7444;SDS011;3764;48.126;11.594;2023-07-09T08:12:12;5.90;;;5.20;;
7444;SDS011;3764;48.126;11.594;2023-07-09T08:14:40;9.60;;;5.53;;
7444;SDS011;3764;48.126;11.594;2023-07-09T08:17:12;6.70;;;5.83;;
7444;SDS011;3764;48.126;11.594;2023-07-09T08:19:43;9.10;;;6.57;;
7444;SDS011;3764;48.126;11.594;2023-07-09T08:22:12;8.13;;;5.43;;
7444;SDS011;3764;48.126;11.594;2023-07-09T08:24:39;6.70;;;5.87;;
7444;SDS011;3764;48.126;11.594;2023-07-09T08:27:06;8.07;;;6.03;;
7444;SDS011;3764;48.126;11.594;2023-07-09T08:29:34;5.80;;;5.17;;
7444;SDS011;3764;48.126;11.594;2023-07-09T08:32:01;9.30;;;6.00;;
7444;SDS011;3764;48.126;11.594;2023-07-09T08:34:30;9.10;;;7.50;;
7444;SDS011;3764;48.126;11.594;2023-07-09T08:36:57;6.47;;;5.37;;
7444;SDS011;3764;48.126;11.594;2023-07-09T08:39:24;8.73;;;5.60;;
7444;SDS011;3764;48.126;11.594;2023-07-09T08:41:52;7.47;;;6.00;;
7444;SDS011;3764;48.126;11.594;2023-07-09T08:44:28;8.17;;;6.27;;
7444;SDS011;3764;48.126;11.594;2023-07-09T08:47:06;6.17;;;4.87;;
7444;SDS011;3764;48.126;11.594;2023-07-09T08:49:40;8.73;;;5.00;;
7444;SDS011;3764;48.126;11.594;2023-07-09T08:52:12;5.40;;;4.90;;
7444;SDS011;3764;48.126;11.594;2023-07-09T08:54:42;6.73;;;5.50;;
7444;SDS011;3764;48.126;11.594;2023-07-09T08:57:15;6.03;;;4.93;;
7444;SDS011;3764;48.126;11.594;2023-07-09T08:59:46;6.93;;;5.30;;
7444;SDS011;3764;48.126;11.594;2023-07-09T09:02:20;8.17;;;5.27;;
7444;SDS011;3764;48.126;11.594;2023-07-09T09:04:57;8.37;;;5.80;;
7444;SDS011;3764;48.126;11.594;2023-07-09T09:07:28;5.93;;;4.50;;
7444;SDS011;3764;48.126;11.594;2023-07-09T09:10:05;7.13;;;4.60;;
7444;SDS011;3764;48.126;11.594;2023-07-09T09:12:37;8.30;;;4.27;;
7444;SDS011;3764;48.126;11.594;2023-07-09T09:15:10;5.20;;;3.90;;
7444;SDS011;3764;48.126;11.594;2023-07-09T09:17:43;7.90;;;4.40;;
7444;SDS011;3764;48.126;11.594;2023-07-09T09:20:13;4.97;;;3.93;;
7444;SDS011;3764;48.126;11.594;2023-07-09T09:22:47;6.00;;;4.50;;
7444;SDS011;3764;48.126;11.594;2023-07-09T09:25:20;6.77;;;4.47;;
7444;SDS011;3764;48.126;11.594;2023-07-09T09:27:52;6.60;;;4.23;;
7444;SDS011;3764;48.126;11.594;2023-07-09T09:30:20;5.17;;;4.20;;
7444;SDS011;3764;48.126;11.594;2023-07-09T09:32:50;6.10;;;4.37;;
7444;SDS011;3764;48.126;11.594;2023-07-09T09:35:27;5.57;;;4.20;;
7444;SDS011;3764;48.126;11.594;2023-07-09T09:37:56;5.90;;;4.63;;
7444;SDS011;3764;48.126;11.594;2023-07-09T09:40:25;4.80;;;3.90;;
7444;SDS011;3764;48.126;11.594;2023-07-09T09:42:55;9.57;;;4.10;;
7444;SDS011;3764;48.126;11.594;2023-07-09T09:45:26;5.60;;;4.20;;
7444;SDS011;3764;48.126;11.594;2023-07-09T09:47:58;4.40;;;3.70;;
7444;SDS011;3764;48.126;11.594;2023-07-09T09:50:29;8.57;;;3.90;;
7444;SDS011;3764;48.126;11.594;2023-07-09T09:52:59;7.03;;;4.40;;
7444;SDS011;3764;48.126;11.594;2023-07-09T09:55:28;6.13;;;4.90;;
7444;SDS011;3764;48.126;11.594;2023-07-09T09:57:57;5.17;;;4.13;;
7444;SDS011;3764;48.126;11.594;2023-07-09T10:00:27;7.87;;;4.43;;
7444;SDS011;3764;48.126;11.594;2023-07-09T10:02:58;9.33;;;4.40;;
7444;SDS011;3764;48.126;11.594;2023-07-09T10:05:29;5.67;;;4.63;;
7444;SDS011;3764;48.126;11.594;2023-07-09T10:08:03;5.57;;;4.60;;
7444;SDS011;3764;48.126;11.594;2023-07-09T10:10:34;5.87;;;4.07;;
7444;SDS011;3764;48.126;11.594;2023-07-09T10:13:05;4.23;;;3.80;;
7444;SDS011;3764;48.126;11.594;2023-07-09T10:15:42;5.00;;;4.17;;
7444;SDS011;3764;48.126;11.594;2023-07-09T10:18:22;9.27;;;7.70;;
7444;SDS011;3764;48.126;11.594;2023-07-09T10:21:01;9.67;;;5.60;;
7444;SDS011;3764;48.126;11.594;2023-07-09T10:23:35;6.23;;;4.40;;
7444;SDS011;3764;48.126;11.594;2023-07-09T10:26:11;8.70;;;4.00;;
7444;SDS011;3764;48.126;11.594;2023-07-09T10:28:50;5.13;;;4.20;;
7444;SDS011;3764;48.126;11.594;2023-07-09T10:31:33;10.80;;;4.83;;
7444;SDS011;3764;48.126;11.594;2023-07-09T10:34:09;4.70;;;3.70;;
7444;SDS011;3764;48.126;11.594;2023-07-09T10:36:52;5.80;;;4.70;;
7444;SDS011;3764;48.126;11.594;2023-07-09T10:39:31;7.83;;;4.60;;
7444;SDS011;3764;48.126;11.594;2023-07-09T10:42:01;6.40;;;4.93;;
7444;SDS011;3764;48.126;11.594;2023-07-09T10:44:31;5.90;;;4.93;;
7444;SDS011;3764;48.126;11.594;2023-07-09T10:47:02;4.97;;;4.47;;
7444;SDS011;3764;48.126;11.594;2023-07-09T10:49:34;6.23;;;5.07;;
7444;SDS011;3764;48.126;11.594;2023-07-09T10:52:10;10.73;;;5.07;;
7444;SDS011;3764;48.126;11.594;2023-07-09T10:54:41;5.60;;;4.60;;
7444;SDS011;3764;48.126;11.594;2023-07-09T10:57:17;5.80;;;4.77;;
7444;SDS011;3764;48.126;11.594;2023-07-09T10:59:50;6.40;;;4.90;;
7444;SDS011;3764;48.126;11.594;2023-07-09T11:02:21;9.17;;;5.10;;
7444;SDS011;3764;48.126;11.594;2023-07-09T11:04:52;11.33;;;5.20;;
7444;SDS011;3764;48.126;11.594;2023-07-09T11:07:23;7.20;;;4.60;;
7444;SDS011;3764;48.126;11.594;2023-07-09T11:09:54;5.43;;;4.40;;
7444;SDS011;3764;48.126;11.594;2023-07-09T11:12:24;11.23;;;4.40;;
7444;SDS011;3764;48.126;11.594;2023-07-09T11:14:59;6.77;;;5.80;;
7444;SDS011;3764;48.126;11.594;2023-07-09T11:17:32;6.13;;;5.10;;
7444;SDS011;3764;48.126;11.594;2023-07-09T11:20:00;5.17;;;4.67;;
7444;SDS011;3764;48.126;11.594;2023-07-09T11:22:39;5.50;;;4.20;;
7444;SDS011;3764;48.126;11.594;2023-07-09T11:25:07;5.87;;;4.33;;
7444;SDS011;3764;48.126;11.594;2023-07-09T11:27:45;5.60;;;4.97;;
7444;SDS011;3764;48.126;11.594;2023-07-09T11:30:19;6.83;;;5.40;;
7444;SDS011;3764;48.126;11.594;2023-07-09T11:32:52;7.00;;;4.43;;
7444;SDS011;3764;48.126;11.594;2023-07-09T11:35:23;5.20;;;4.70;;
7444;SDS011;3764;48.126;11.594;2023-07-09T11:37:53;5.23;;;4.33;;
7444;SDS011;3764;48.126;11.594;2023-07-09T11:40:21;5.80;;;4.70;;
7444;SDS011;3764;48.126;11.594;2023-07-09T11:42:50;7.10;;;4.50;;
7444;SDS011;3764;48.126;11.594;2023-07-09T11:45:20;7.10;;;4.30;;
7444;SDS011;3764;48.126;11.594;2023-07-09T11:47:53;5.57;;;4.00;;
7444;SDS011;3764;48.126;11.594;2023-07-09T11:50:30;6.80;;;4.60;;
7444;SDS011;3764;48.126;11.594;2023-07-09T11:53:02;7.73;;;5.30;;
7444;SDS011;3764;48.126;11.594;2023-07-09T11:55:36;5.80;;;5.17;;
7444;SDS011;3764;48.126;11.594;2023-07-09T11:58:07;7.00;;;4.83;;
7444;SDS011;3764;48.126;11.594;2023-07-09T12:00:37;5.53;;;4.40;;
7444;SDS011;3764;48.126;11.594;2023-07-09T12:03:06;7.07;;;4.83;;
7444;SDS011;3764;48.126;11.594;2023-07-09T12:05:38;6.53;;;4.90;;
7444;SDS011;3764;48.126;11.594;2023-07-09T12:08:10;8.00;;;4.93;;
7444;SDS011;3764;48.126;11.594;2023-07-09T12:10:41;5.60;;;4.40;;
7444;SDS011;3764;48.126;11.594;2023-07-09T12:13:10;4.80;;;4.30;;
7444;SDS011;3764;48.126;11.594;2023-07-09T12:15:39;6.07;;;5.17;;
7444;SDS011;3764;48.126;11.594;2023-07-09T12:18:10;9.03;;;4.97;;
7444;SDS011;3764;48.126;11.594;2023-07-09T12:20:38;5.23;;;4.73;;
7444;SDS011;3764;48.126;11.594;2023-07-09T12:23:15;4.73;;;4.00;;
7444;SDS011;3764;48.126;11.594;2023-07-09T12:25:48;6.60;;;4.80;;
7444;SDS011;3764;48.126;11.594;2023-07-09T12:28:16;6.13;;;5.53;;
7444;SDS011;3764;48.126;11.594;2023-07-09T12:30:45;7.83;;;5.40;;
7444;SDS011;3764;48.126;11.594;2023-07-09T12:33:15;5.70;;;4.53;;
7444;SDS011;3764;48.126;11.594;2023-07-09T12:35:44;6.20;;;4.80;;
7444;SDS011;3764;48.126;11.594;2023-07-09T12:38:17;6.60;;;4.73;;
7444;SDS011;3764;48.126;11.594;2023-07-09T12:40:46;8.77;;;5.20;;
7444;SDS011;3764;48.126;11.594;2023-07-09T12:43:15;6.73;;;4.70;;
7444;SDS011;3764;48.126;11.594;2023-07-09T12:45:46;5.23;;;4.20;;
7444;SDS011;3764;48.126;11.594;2023-07-09T12:48:13;5.23;;;4.50;;
7444;SDS011;3764;48.126;11.594;2023-07-09T12:50:41;6.53;;;4.10;;
7444;SDS011;3764;48.126;11.594;2023-07-09T12:53:15;7.13;;;4.50;;
7444;SDS011;3764;48.126;11.594;2023-07-09T12:55:47;5.20;;;4.67;;
7444;SDS011;3764;48.126;11.594;2023-07-09T12:58:16;5.23;;;4.50;;
7444;SDS011;3764;48.126;11.594;2023-07-09T13:00:47;7.20;;;5.27;;
7444;SDS011;3764;48.126;11.594;2023-07-09T13:03:18;5.37;;;4.83;;
7444;SDS011;3764;48.126;11.594;2023-07-09T13:05:51;4.80;;;4.30;;
7444;SDS011;3764;48.126;11.594;2023-07-09T13:08:21;4.63;;;4.13;;
7444;SDS011;3764;48.126;11.594;2023-07-09T13:10:48;6.70;;;4.03;;
7444;SDS011;3764;48.126;11.594;2023-07-09T13:13:18;5.53;;;4.40;;
7444;SDS011;3764;48.126;11.594;2023-07-09T13:15:48;5.70;;;5.10;;
7444;SDS011;3764;48.126;11.594;2023-07-09T13:18:17;5.07;;;3.60;;
7444;SDS011;3764;48.126;11.594;2023-07-09T13:20:45;5.60;;;4.93;;
7444;SDS011;3764;48.126;11.594;2023-07-09T13:23:14;7.10;;;4.93;;
7444;SDS011;3764;48.126;11.594;2023-07-09T13:25:44;7.27;;;4.70;;
7444;SDS011;3764;48.126;11.594;2023-07-09T13:28:14;5.40;;;4.90;;
7444;SDS011;3764;48.126;11.594;2023-07-09T13:30:43;7.70;;;4.95;;
7444;SDS011;3764;48.126;11.594;2023-07-09T13:33:10;5.50;;;4.63;;
7444;SDS011;3764;48.126;11.594;2023-07-09T13:35:37;5.30;;;4.57;;
7444;SDS011;3764;48.126;11.594;2023-07-09T13:38:09;5.37;;;4.87;;
7444;SDS011;3764;48.126;11.594;2023-07-09T13:40:40;5.87;;;5.07;;
7444;SDS011;3764;48.126;11.594;2023-07-09T13:43:13;5.27;;;4.77;;
7444;SDS011;3764;48.126;11.594;2023-07-09T13:45:42;4.73;;;4.33;;
7444;SDS011;3764;48.126;11.594;2023-07-09T13:48:18;5.50;;;4.77;;
7444;SDS011;3764;48.126;11.594;2023-07-09T13:50:47;4.77;;;4.33;;
7444;SDS011;3764;48.126;11.594;2023-07-09T13:53:17;7.37;;;4.33;;
7444;SDS011;3764;48.126;11.594;2023-07-09T13:55:46;8.93;;;4.87;;
7444;SDS011;3764;48.126;11.594;2023-07-09T13:58:16;6.90;;;4.53;;
7444;SDS011;3764;48.126;11.594;2023-07-09T14:00:46;5.67;;;4.10;;
7444;SDS011;3764;48.126;11.594;2023-07-09T14:03:15;4.77;;;4.30;;
7444;SDS011;3764;48.126;11.594;2023-07-09T14:05:47;5.27;;;4.40;;
7444;SDS011;3764;48.126;11.594;2023-07-09T14:08:15;6.37;;;4.53;;
7444;SDS011;3764;48.126;11.594;2023-07-09T14:10:42;6.87;;;4.30;;
7444;SDS011;3764;48.126;11.594;2023-07-09T14:13:09;5.00;;;4.50;;
7444;SDS011;3764;48.126;11.594;2023-07-09T14:15:42;5.20;;;4.30;;
7444;SDS011;3764;48.126;11.594;2023-07-09T14:18:11;5.70;;;4.33;;
7444;SDS011;3764;48.126;11.594;2023-07-09T14:20:39;6.80;;;4.30;;
7444;SDS011;3764;48.126;11.594;2023-07-09T14:23:08;8.70;;;4.37;;
7444;SDS011;3764;48.126;11.594;2023-07-09T14:25:37;5.27;;;4.17;;
7444;SDS011;3764;48.126;11.594;2023-07-09T14:28:07;6.37;;;4.63;;
7444;SDS011;3764;48.126;11.594;2023-07-09T14:30:36;4.43;;;3.73;;
7444;SDS011;3764;48.126;11.594;2023-07-09T14:33:08;5.57;;;4.03;;
7444;SDS011;3764;48.126;11.594;2023-07-09T14:35:39;5.77;;;4.30;;
7444;SDS011;3764;48.126;11.594;2023-07-09T14:38:10;7.50;;;3.77;;
7444;SDS011;3764;48.126;11.594;2023-07-09T14:40:42;5.50;;;3.80;;
7444;SDS011;3764;48.126;11.594;2023-07-09T14:43:09;5.90;;;4.47;;
7444;SDS011;3764;48.126;11.594;2023-07-09T14:45:37;6.03;;;4.00;;
7444;SDS011;3764;48.126;11.594;2023-07-09T14:48:09;7.17;;;3.70;;
7444;SDS011;3764;48.126;11.594;2023-07-09T14:50:37;6.03;;;4.67;;
7444;SDS011;3764;48.126;11.594;2023-07-09T14:53:08;5.20;;;4.40;;
7444;SDS011;3764;48.126;11.594;2023-07-09T14:55:40;4.60;;;4.00;;
7444;SDS011;3764;48.126;11.594;2023-07-09T14:58:11;4.70;;;3.87;;
7444;SDS011;3764;48.126;11.594;2023-07-09T15:00:41;4.60;;;4.13;;
7444;SDS011;3764;48.126;11.594;2023-07-09T15:03:14;4.30;;;3.90;;
7444;SDS011;3764;48.126;11.594;2023-07-09T15:05:45;4.87;;;4.17;;
7444;SDS011;3764;48.126;11.594;2023-07-09T15:08:12;4.90;;;4.40;;
7444;SDS011;3764;48.126;11.594;2023-07-09T15:10:41;6.97;;;4.73;;
7444;SDS011;3764;48.126;11.594;2023-07-09T15:13:12;6.60;;;4.47;;
7444;SDS011;3764;48.126;11.594;2023-07-09T15:15:42;4.63;;;3.73;;
7444;SDS011;3764;48.126;11.594;2023-07-09T15:18:10;5.50;;;4.20;;